Axtell, UT (84621)

8:50 PM MDT on August 03, 2015 (GMT -0600)
Salina-Northeast Fields | | Change Station
CLOSE
Current Station
Personal Weather Station
Location: Salina, UT
Elevation: 5174 ft
Nearby Weather Stations

Elev 5174 ft 39.00 °N, 111.83 °W | Updated 4 minutes ago

Partly Cloudy
Partly Cloudy
70.8 °F
Feels Like 76 °F
N
1.0
Wind Variable Wind from NE
Gusts 3.0 mph

Today
High -- | Low -- °F
--% Chance of Precip.
Yesterday
High -- | Low -- °F
Precip. -- in
6:29 AM 8:36 PM
Waning Gibbous, 82% visible
Pressure 29.93 in
Visibility 10.0 miles
Clouds Clear
Heat Index 76 °F
Dew Point 54 °F
Humidity 56%
Rainfall 0.02 in
Snow Depth Not available.
UV 0 out of 12
Pollen 3.00 out of 12
Air Quality Not available.
Flu Activity Not available.
METAR KPUC 040153Z AUTO 01009KT 10SM CLR 21/08 A3011 RMK AO2 SLP135 T02110083 TSNO

More Conditions Fewer Conditions

Pressure 29.93 in
Visibility 10.0 miles
Clouds Clear
Heat Index 76 °F
Dew Point 54 °F
Humidity 56%
Rainfall 0.02 in
Snow Depth Not available.
UV 0 out of 12
Pollen 3.00 out of 12
Air Quality Not available.
Flu Activity Not available.
METAR KPUC 040153Z AUTO 01009KT 10SM CLR 21/08 A3011 RMK AO2 SLP135 T02110083 TSNO

More Conditions Fewer Conditions

10-Day Weather Forecast

×

Almanac

Astronomy

Aug. 03, 2015 Rise Set
Actual Time
Civil Twilight
Nautical Twilight
Astronomical Twilight
Moon
Length of Visible Light
Length of Day
Tomorrow will be .
, % of the Moon is Illuminated

Today's Extremes

State Highs State Lows

Community

WunderPhotos

Upload Photos

1,843,834 photos uploaded!

WunderBlogs® & News

Nearby

Air Quality

  Air Quality AQ Index Pollutant
Not available.

Snow Depth

Station Depth Elevation

Earthquake Activity

City Distance Mag. Time & Date
Minimum magnitude displayed is 2.5.

Coastal Water Temperatures

Place Temperature

Stations

Nearby Weather Stations

Station Location Temp. Windchill Dew Point Humidity Wind Precip. Elev Updated Type